Time;durP1;ratioP1;P1;durP2;ratioP2;P2;SDS_P1;SDS_P2;PMS_P1;PMS_P2;Temp;Humidity;BMP_temperature;BMP_pressure;BME280_temperature;BME280_humidity;BME280_pressure;Samples;Min_cycle;Max_cycle;Signal;HPM_P1;HPM_P2
2022/06/13 00:00:04;;;;;;;1.90;1.30;;;;;;;14.25;75.12;98845.74;104750;1274;63010;-25
2022/06/13 00:02:34;;;;;;;4.90;1.90;;;;;;;14.70;74.50;98840.04;104690;1273;74872;-25
2022/06/13 00:05:05;;;;;;;1.60;1.40;;;;;;;15.20;72.44;98841.23;104543;1273;76969;-25
2022/06/13 00:07:32;;;;;;;2.20;1.40;;;;;;;15.19;72.22;98833.45;104566;1274;75481;-25
2022/06/13 00:09:59;;;;;;;2.60;1.70;;;;;;;14.99;72.26;98835.55;104695;1274;61920;-25
2022/06/13 00:12:28;;;;;;;3.10;2.10;;;;;;;14.73;73.03;98838.20;104657;1274;62020;-25
2022/06/13 00:14:55;;;;;;;4.50;2.00;;;;;;;14.44;73.93;98832.11;104333;1274;75563;-25
2022/06/13 00:17:22;;;;;;;2.90;2.30;;;;;;;14.17;74.97;98832.34;104614;1274;77117;-25
2022/06/13 00:19:49;;;;;;;1.30;1.20;;;;;;;13.98;76.22;98834.79;104519;1273;74924;-25
2022/06/13 00:22:18;;;;;;;1.50;1.20;;;;;;;14.38;75.70;98836.39;104441;1274;63221;-25
2022/06/13 00:24:45;;;;;;;2.90;1.60;;;;;;;14.91;74.00;98835.70;104393;1274;61698;-25
2022/06/13 00:27:12;;;;;;;1.60;1.50;;;;;;;15.01;72.97;98834.89;104614;1273;75503;-25
2022/06/13 00:29:41;;;;;;;1.70;1.50;;;;;;;14.89;72.88;98829.79;104614;1273;77027;-27
2022/06/13 00:32:09;;;;;;;3.20;2.40;;;;;;;14.65;73.76;98827.23;104591;1273;74355;-25
2022/06/13 00:34:37;;;;;;;2.10;1.90;;;;;;;14.34;75.66;98831.77;104606;1273;63129;-25
2022/06/13 00:37:04;;;;;;;3.20;1.40;;;;;;;14.10;76.74;98829.11;104585;1274;61989;-25
2022/06/13 00:39:31;;;;;;;2.20;1.60;;;;;;;14.40;76.23;98824.68;104609;1273;74228;-25
2022/06/13 00:41:58;;;;;;;1.60;1.50;;;;;;;14.81;74.44;98823.23;104596;1273;77011;-25
2022/06/13 00:44:30;;;;;;;1.70;1.60;;;;;;;14.82;73.81;98823.98;104705;1273;75698;-25
2022/06/13 00:46:58;;;;;;;2.00;1.80;;;;;;;14.58;74.49;98820.95;104567;1274;61755;-25
2022/06/13 00:49:31;;;;;;;2.40;1.90;;;;;;;14.35;75.33;98827.11;104702;1274;63046;-25
2022/06/13 00:52:10;;;;;;;4.30;2.40;;;;;;;14.12;76.00;98822.11;104288;1274;75553;-25
2022/06/13 00:54:37;;;;;;;4.10;1.40;;;;;;;13.91;76.99;98825.19;104510;1273;76012;-25
2022/06/13 00:57:05;;;;;;;3.60;1.40;;;;;;;14.33;76.08;98818.75;104643;1274;74896;-25
2022/06/13 00:59:33;;;;;;;2.00;1.90;;;;;;;14.73;74.10;98815.07;104680;1274;63127;-25
2022/06/13 01:02:00;;;;;;;2.00;1.80;;;;;;;14.72;73.98;98812.77;104685;1274;61103;-25
2022/06/13 01:04:28;;;;;;;2.40;1.80;;;;;;;14.52;74.49;98813.02;104642;1274;76691;-25
2022/06/13 01:06:55;;;;;;;2.10;1.80;;;;;;;14.30;75.13;98813.17;104661;1274;75943;-24
2022/06/13 01:11:16;;;;;;;3.50;2.20;;;;;;;14.07;75.88;98811.19;104514;1275;75437;-24
2022/06/13 01:12:10;;;;;;;3.10;1.30;;;;;;;13.87;76.72;98815.08;104554;1274;63684;-25
2022/06/13 01:15:03;;;;;;;2.70;1.50;;;;;;;14.35;75.72;98810.86;104595;1273;62043;-25
2022/06/13 01:18:03;;;;;;;3.40;1.70;;;;;;;14.82;73.71;98806.10;104567;1274;76468;-24
2022/06/13 01:20:39;;;;;;;4.20;2.00;;;;;;;14.79;73.54;98807.56;104409;1273;77026;-25
2022/06/13 01:23:18;;;;;;;4.90;2.10;;;;;;;14.47;75.25;98806.38;104524;1274;75140;-25
2022/06/13 01:26:10;;;;;;;4.70;2.30;;;;;;;14.35;74.88;98811.59;104515;1276;61867;-25
2022/06/13 01:28:41;;;;;;;2.10;1.90;;;;;;;14.07;74.39;98806.18;104569;1274;62229;-25
2022/06/13 01:31:36;;;;;;;1.60;1.10;;;;;;;13.80;76.87;98812.64;104573;1274;76460;-25
2022/06/13 01:34:13;;;;;;;1.40;1.30;;;;;;;14.35;75.88;98807.88;104425;1273;76904;-25
2022/06/13 01:37:09;;;;;;;2.10;1.60;;;;;;;14.76;73.61;98801.89;104605;1274;75465;-25
2022/06/13 01:40:04;;;;;;;2.20;1.80;;;;;;;14.57;73.49;98807.98;104760;1272;61887;-25
2022/06/13 01:43:00;;;;;;;2.70;2.00;;;;;;;14.27;74.49;98810.85;104730;1270;61961;-25
2022/06/13 01:45:56;;;;;;;4.20;2.10;;;;;;;14.00;75.40;98812.45;104834;1271;76321;-25
2022/06/13 01:48:31;;;;;;;2.20;2.00;;;;;;;13.73;76.53;98807.09;104727;1271;76153;-25
2022/06/13 01:51:22;;;;;;;5.20;1.40;;;;;;;13.57;77.46;98804.96;104674;1270;73347;-25
2022/06/13 01:53:51;;;;;;;3.70;1.70;;;;;;;14.21;76.07;98806.89;104745;1273;62882;-25
2022/06/13 01:56:21;;;;;;;2.90;1.60;;;;;;;14.69;74.18;98806.40;104800;1271;63180;-24
2022/06/13 01:58:56;;;;;;;2.00;1.80;;;;;;;14.70;73.16;98806.70;104664;1271;76570;-21
2022/06/13 02:01:41;;;;;;;2.10;1.90;;;;;;;14.46;73.58;98808.52;104823;1271;75158;-24
2022/06/13 02:04:22;;;;;;;3.80;2.20;;;;;;;14.16;74.44;98814.33;104760;1271;74220;-24
2022/06/13 02:07:00;;;;;;;3.20;2.00;;;;;;;13.87;75.49;98815.11;104594;1273;63313;-24
2022/06/13 02:09:29;;;;;;;3.90;1.40;;;;;;;13.64;76.67;98809.51;104781;1270;61146;-24
2022/06/13 02:11:56;;;;;;;2.70;1.50;;;;;;;14.08;76.03;98812.70;104671;1270;75070;-24
2022/06/13 02:14:34;;;;;;;3.20;1.50;;;;;;;14.52;73.75;98810.89;104700;1271;77508;-24
2022/06/13 02:17:12;;;;;;;7.70;2.20;;;;;;;14.50;73.71;98809.58;104715;1270;75723;-24
2022/06/13 02:20:06;;;;;;;5.80;1.90;;;;;;;14.24;74.27;98812.31;104734;1271;61963;-24
2022/06/13 02:22:38;;;;;;;2.80;2.00;;;;;;;13.92;75.47;98813.91;104812;1270;62870;-24
2022/06/13 02:25:16;;;;;;;2.80;2.00;;;;;;;13.64;76.32;98813.48;104918;1270;76529;-24
2022/06/13 02:27:47;;;;;;;1.60;1.30;;;;;;;13.46;77.43;98815.58;104951;1271;76096;-24
2022/06/13 02:30:18;;;;;;;2.50;1.60;;;;;;;14.00;76.32;98812.80;104799;1271;75442;-24
2022/06/13 02:32:54;;;;;;;2.90;1.90;;;;;;;14.67;74.06;98814.29;104905;1270;62092;-24
2022/06/13 02:35:30;;;;;;;2.20;2.00;;;;;;;14.93;72.65;98816.04;105142;1270;61667;-24
2022/06/13 02:38:12;;;;;;;2.40;2.00;;;;;;;14.89;72.36;98815.42;104868;1271;76627;-24
2022/06/13 02:40:46;;;;;;;2.70;2.10;;;;;;;14.93;72.39;98817.09;104686;1271;76979;-24
2022/06/13 02:43:20;;;;;;;1.90;1.70;;;;;;;15.12;71.64;98814.64;104384;1271;75128;-23
2022/06/13 02:45:53;;;;;;;2.20;2.00;;;;;;;15.33;70.78;98816.45;104766;1270;62155;-24
2022/06/13 02:48:26;;;;;;;1.30;1.10;;;;;;;15.56;69.91;98818.97;104669;1271;61973;-24
2022/06/13 02:51:22;;;;;;;1.90;1.70;;;;;;;16.34;68.16;98815.70;104962;1270;75766;-24
2022/06/13 02:53:55;;;;;;;2.30;1.70;;;;;;;17.17;65.53;98808.60;104785;1271;77127;-24
2022/06/13 02:59:59;;;;;;;2.00;1.80;;;;;;;17.39;64.06;98811.00;104865;1270;61157;-24
2022/06/13 03:02:36;;;;;;;2.10;1.90;;;;;;;17.40;63.59;98810.72;105060;1271;61919;-24
2022/06/13 03:05:26;;;;;;;3.10;1.70;;;;;;;17.42;63.72;98805.09;105041;1270;75645;-24
2022/06/13 03:08:06;;;;;;;4.50;1.90;;;;;;;17.44;63.90;98807.06;105091;1271;77472;-24
2022/06/13 03:10:48;;;;;;;2.30;2.10;;;;;;;17.50;63.61;98805.38;104843;1271;75288;-24
2022/06/13 03:13:39;;;;;;;2.50;2.20;;;;;;;17.41;63.37;98806.00;104710;1271;61837;-24
2022/06/13 03:16:23;;;;;;;3.20;2.00;;;;;;;17.26;64.22;98802.58;104702;1271;62093;-23
2022/06/13 03:18:54;;;;;;;1.70;1.60;;;;;;;17.20;64.84;98805.55;104938;1271;77065;-24
2022/06/13 03:21:27;;;;;;;2.70;1.70;;;;;;;17.83;63.28;98808.23;104710;1270;77056;-24
2022/06/13 03:23:55;;;;;;;;;;;;;;;18.47;61.87;98807.22;104943;1271;75413;-24
2022/06/13 03:26:28;;;;;;;2.20;1.80;;;;;;;18.56;61.87;98803.43;104991;1270;62047;-24
2022/06/13 03:29:03;;;;;;;2.60;2.20;;;;;;;18.53;62.06;98810.02;104881;1271;63186;-24
2022/06/13 03:31:34;;;;;;;2.70;2.10;;;;;;;18.46;62.50;98810.52;104563;1270;76523;-24
2022/06/13 03:34:07;;;;;;;2.30;2.10;;;;;;;18.42;62.73;98812.70;104735;1270;76987;-24
2022/06/13 03:36:40;;;;;;;3.40;2.30;;;;;;;18.53;62.85;98811.38;104657;1270;75423;-24
2022/06/13 03:39:10;;;;;;;;;;;;;;;18.70;62.42;98806.58;104779;1271;63361;-24
2022/06/13 03:42:09;;;;;;;1.90;1.70;;;;;;;18.77;62.28;98807.87;104704;1271;61443;-24
2022/06/13 03:44:56;;;;;;;3.30;2.20;;;;;;;18.93;62.66;98808.50;105020;1271;75570;-24
2022/06/13 03:47:32;;;;;;;3.50;2.00;;;;;;;18.98;62.28;98809.64;104751;1271;76088;-24
2022/06/13 03:50:08;;;;;;;2.20;1.70;;;;;;;19.02;62.52;98810.27;104731;1272;74179;-24
2022/06/13 03:52:37;;;;;;;2.20;2.00;;;;;;;19.08;62.19;98806.71;104712;1271;63231;-24
2022/06/13 03:55:11;;;;;;;5.40;2.80;;;;;;;19.10;62.62;98809.90;104623;1270;61809;-24
2022/06/13 03:57:42;;;;;;;2.50;2.30;;;;;;;19.00;63.23;98806.78;104686;1274;76456;-25
2022/06/13 04:00:16;;;;;;;1.90;1.70;;;;;;;19.00;64.02;98805.73;104438;1271;76791;-24
2022/06/13 04:02:43;;;;;;;;;;;;;;;19.76;61.93;98805.81;104735;1271;75467;-24
2022/06/13 04:06:03;;;;;;;3.70;2.00;;;;;;;20.42;59.72;98804.33;104719;1271;63236;-24
2022/06/13 04:08:33;;;;;;;2.90;2.20;;;;;;;20.45;58.58;98801.49;104791;1271;61706;-24
2022/06/13 04:11:33;;;;;;;3.30;2.40;;;;;;;20.38;58.55;98802.15;104684;1271;76565;-24
2022/06/13 04:14:22;;;;;;;2.60;2.10;;;;;;;20.24;59.69;98804.14;104665;1271;76927;-24
2022/06/13 04:17:00;;;;;;;5.90;1.90;;;;;;;20.24;59.40;98801.83;104601;1271;75193;-24
2022/06/13 04:19:37;;;;;;;3.50;2.10;;;;;;;20.19;59.09;98798.91;104758;1271;61842;-24
2022/06/13 04:22:16;;;;;;;2.50;1.80;;;;;;;20.21;58.89;98802.75;104810;1271;61726;-24
2022/06/13 04:24:55;;;;;;;2.60;1.90;;;;;;;20.22;57.91;98803.85;104579;1271;76269;-24
2022/06/13 04:27:30;;;;;;;3.20;2.00;;;;;;;20.31;58.18;98800.27;104656;1272;77033;-24
2022/06/13 04:29:58;;;;;;;2.60;1.70;;;;;;;20.38;56.40;98797.98;104788;1270;74557;-24
2022/06/13 04:32:31;;;;;;;2.00;1.80;;;;;;;20.47;56.40;98799.15;104776;1271;61821;-24
2022/06/13 04:34:58;;;;;;;1.70;1.50;;;;;;;20.62;55.79;98804.14;104654;1271;62096;-23
2022/06/13 04:37:26;;;;;;;3.10;1.90;;;;;;;20.78;56.16;98804.22;104812;1271;75265;-24
2022/06/13 04:39:58;;;;;;;2.60;1.70;;;;;;;20.91;55.18;98804.33;104762;1270;76783;-24
2022/06/13 04:42:26;;;;;;;3.90;1.40;;;;;;;21.01;55.13;98811.16;104738;1273;75411;-24
2022/06/13 04:44:53;;;;;;;3.60;1.80;;;;;;;21.08;54.77;98805.19;104820;1270;61997;-24
2022/06/13 04:47:20;;;;;;;1.70;1.50;;;;;;;21.19;54.34;98806.48;104727;1271;62923;-24
2022/06/13 04:49:55;;;;;;;2.20;1.60;;;;;;;21.31;54.36;98809.39;104773;1271;75843;-24
2022/06/13 04:52:30;;;;;;;2.90;2.10;;;;;;;21.37;53.07;98805.45;104632;1274;76785;-24
2022/06/13 04:55:05;;;;;;;2.90;1.80;;;;;;;21.52;53.22;98806.54;104752;1271;75357;-24
2022/06/13 04:57:32;;;;;;;3.10;1.90;;;;;;;21.67;52.94;98810.64;104658;1271;62047;-24
2022/06/13 04:59:59;;;;;;;1.90;1.50;;;;;;;21.70;52.27;98811.59;104646;1271;62123;-24
2022/06/13 05:02:40;;;;;;;3.10;1.60;;;;;;;21.94;51.88;98809.13;104876;1271;76603;-24
2022/06/13 05:05:41;;;;;;;2.90;1.60;;;;;;;22.21;51.16;98805.59;104789;1271;75478;-24
2022/06/13 05:08:23;;;;;;;6.20;1.70;;;;;;;22.45;50.30;98810.29;104730;1272;75392;-24
2022/06/13 05:10:53;;;;;;;2.40;1.80;;;;;;;22.58;49.45;98809.11;104682;1271;61964;-24
2022/06/13 05:13:20;;;;;;;4.90;1.80;;;;;;;22.56;48.90;98806.63;104684;1274;62048;-24
2022/06/13 05:15:53;;;;;;;35.10;3.20;;;;;;;22.67;48.53;98805.20;104790;1271;76561;-24
2022/06/13 05:18:27;;;;;;;2.20;1.60;;;;;;;22.72;48.43;98804.72;104740;1271;76954;-24
2022/06/13 05:21:19;;;;;;;6.10;2.10;;;;;;;22.88;48.34;98807.04;104823;1271;75418;-24
2022/06/13 05:24:15;;;;;;;3.50;1.70;;;;;;;23.11;48.24;98808.33;104790;1271;61900;-24
2022/06/13 05:26:42;;;;;;;3.00;1.70;;;;;;;23.31;48.65;98810.50;104972;1272;63128;-24
2022/06/13 05:29:10;;;;;;;2.70;1.80;;;;;;;23.32;47.70;98805.45;104772;1271;75010;-24
2022/06/13 05:31:37;;;;;;;4.10;1.90;;;;;;;23.29;47.98;98805.56;104808;1271;76081;-23
2022/06/13 05:34:16;;;;;;;13.90;2.70;;;;;;;23.31;47.96;98800.27;104805;1271;75348;-24
2022/06/13 05:36:44;;;;;;;6.80;1.90;;;;;;;23.55;48.26;98802.56;104666;1271;61773;-24
2022/06/13 05:39:11;;;;;;;3.80;1.80;;;;;;;23.58;47.58;98802.54;104754;1272;63233;-24
2022/06/13 05:41:38;;;;;;;6.50;2.20;;;;;;;23.38;48.60;98807.21;104817;1271;76914;-23
2022/06/13 05:44:06;;;;;;;7.60;2.20;;;;;;;23.16;49.23;98805.86;104831;1271;75903;-24
2022/06/13 05:46:35;;;;;;;3.10;1.70;;;;;;;23.06;49.23;98810.33;104743;1271;73666;-23
2022/06/13 05:49:02;;;;;;;2.70;1.70;;;;;;;23.17;49.85;98810.27;104748;1271;62013;-24
2022/06/13 05:51:30;;;;;;;3.50;2.10;;;;;;;23.39;48.97;98814.98;104686;1271;63498;-23
2022/06/13 05:53:57;;;;;;;3.60;1.70;;;;;;;23.54;48.23;98818.30;104722;1271;76635;-23
2022/06/13 05:56:25;;;;;;;61.90;4.00;;;;;;;23.65;48.31;98817.98;104831;1271;76031;-23
2022/06/13 05:58:53;;;;;;;3.30;2.10;;;;;;;23.90;48.61;98814.34;104702;1271;74463;-24
2022/06/13 06:01:20;;;;;;;6.50;2.10;;;;;;;23.92;48.03;98809.52;104804;1271;62794;-23
2022/06/13 06:03:48;;;;;;;9.60;2.10;;;;;;;23.88;48.36;98811.08;104807;1274;63175;-23
2022/06/13 06:06:18;;;;;;;5.50;2.20;;;;;;;23.85;48.38;98812.49;104772;1271;76821;-24
2022/06/13 06:08:46;;;;;;;3.20;1.70;;;;;;;23.76;47.36;98810.14;104797;1270;76013;-24
2022/06/13 06:11:13;;;;;;;9.90;2.20;;;;;;;23.93;46.44;98805.20;104707;1271;74604;-24
2022/06/13 06:13:40;;;;;;;3.20;1.90;;;;;;;23.66;46.31;98801.73;104842;1271;62046;-24
2022/06/13 06:16:10;;;;;;;4.20;1.90;;;;;;;23.95;46.87;98800.89;104773;1271;62030;-23
2022/06/13 06:18:37;;;;;;;7.10;2.20;;;;;;;24.09;47.58;98800.05;104748;1271;76408;-23
2022/06/13 06:21:04;;;;;;;6.20;2.40;;;;;;;24.15;47.91;98801.71;104820;1271;75769;-22
2022/06/13 06:23:32;;;;;;;3.40;1.80;;;;;;;24.28;46.62;98801.81;104748;1274;72928;-22
2022/06/13 06:25:59;;;;;;;6.50;2.20;;;;;;;24.51;46.22;98803.86;104852;1271;61883;-23
2022/06/13 06:28:27;;;;;;;8.60;4.70;;;;;;;24.60;45.92;98801.64;104842;1271;61965;-23
2022/06/13 06:30:56;;;;;;;3.90;2.10;;;;;;;24.75;44.96;98796.05;104825;1271;76544;-22
2022/06/13 06:33:24;;;;;;;4.90;1.90;;;;;;;24.86;45.09;98795.98;104776;1271;77201;-22
2022/06/13 06:35:52;;;;;;;3.90;1.90;;;;;;;24.92;44.54;98794.17;104779;1271;75287;-22
2022/06/13 06:38:21;;;;;;;3.30;1.90;;;;;;;25.23;44.33;98793.76;104813;1271;61934;-22
2022/06/13 06:40:49;;;;;;;2.20;1.70;;;;;;;25.43;44.42;98793.41;104649;1274;62070;-22
2022/06/13 06:43:16;;;;;;;3.60;1.70;;;;;;;25.61;43.60;98790.39;104843;1271;75647;-22
2022/06/13 06:45:44;;;;;;;2.70;1.80;;;;;;;25.81;43.58;98786.67;104741;1274;76939;-22
2022/06/13 06:48:16;;;;;;;2.70;1.50;;;;;;;25.88;43.33;98787.32;104727;1271;75554;-22
2022/06/13 06:50:45;;;;;;;2.40;1.50;;;;;;;25.86;43.85;98789.65;104440;1271;63010;-22
2022/06/13 06:53:13;;;;;;;4.30;1.70;;;;;;;25.85;43.73;98785.08;104790;1271;61955;-22
2022/06/13 07:01:12;;;;;;;6.60;1.80;;;;;;;25.37;42.30;98787.69;105007;1271;75566;-22
2022/06/13 07:03:40;;;;;;;4.80;2.10;;;;;;;25.26;43.25;98788.70;105083;1271;62866;-23
2022/06/13 07:06:08;;;;;;;5.70;2.10;;;;;;;25.69;43.70;98786.67;105138;1270;63069;-23
2022/06/13 07:08:36;;;;;;;3.60;1.70;;;;;;;25.79;43.71;98787.48;105093;1271;75496;-22
2022/06/13 07:13:55;;;;;;;7.20;2.10;;;;;;;25.84;44.00;98784.61;105018;1271;75805;-22
2022/06/13 07:16:22;;;;;;;3.40;1.90;;;;;;;25.77;43.75;98782.64;104886;1271;62037;-22
2022/06/13 07:18:50;;;;;;;3.70;1.70;;;;;;;25.81;43.06;98787.16;104798;1271;62963;-22
2022/06/13 07:21:17;;;;;;;18.00;8.40;;;;;;;25.78;42.30;98785.67;104797;1271;76673;-22
2022/06/13 07:23:45;;;;;;;4.60;2.80;;;;;;;25.77;42.83;98781.94;104713;1274;76347;-22
2022/06/13 07:26:12;;;;;;;4.00;2.10;;;;;;;26.14;42.56;98776.75;104713;1272;75426;-22
2022/06/13 07:28:39;;;;;;;6.30;1.70;;;;;;;26.20;41.91;98775.88;104721;1271;61842;-23
2022/06/13 07:31:10;;;;;;;3.90;1.70;;;;;;;26.30;41.85;98771.88;104774;1271;62097;-22
2022/06/13 07:33:37;;;;;;;8.60;3.50;;;;;;;26.39;41.11;98774.61;104536;1271;75567;-22
2022/06/13 07:36:05;;;;;;;3.80;1.90;;;;;;;26.27;39.92;98771.36;104815;1271;76961;-22
2022/06/13 07:38:32;;;;;;;2.70;1.40;;;;;;;26.15;38.99;98768.50;104725;1270;75205;-22
2022/06/13 07:41:00;;;;;;;5.70;2.40;;;;;;;25.20;38.88;98768.28;104722;1271;61787;-22
2022/06/13 07:43:32;;;;;;;2.80;1.20;;;;;;;25.04;39.76;98770.44;104733;1271;62224;-23
2022/06/13 07:46:02;;;;;;;3.20;2.30;;;;;;;25.44;39.23;98774.91;104763;1271;76627;-22
2022/06/13 07:48:29;;;;;;;2.00;1.40;;;;;;;25.71;39.11;98773.13;104662;1271;77822;-23
2022/06/13 07:50:57;;;;;;;2.30;1.20;;;;;;;25.88;39.34;98776.54;104765;1271;75182;-22
2022/06/13 07:53:24;;;;;;;2.30;1.10;;;;;;;26.49;37.58;98776.02;104772;1274;62047;-22
2022/06/13 07:56:13;;;;;;;2.70;1.10;;;;;;;26.87;37.71;98778.29;104769;1271;61396;-23
2022/06/13 07:58:41;;;;;;;2.90;1.50;;;;;;;26.55;37.32;98775.08;104675;1271;75626;-22
2022/06/13 08:01:09;;;;;;;2.70;1.10;;;;;;;26.74;36.71;98771.56;104801;1274;76974;-22
2022/06/13 08:03:36;;;;;;;4.80;1.30;;;;;;;26.98;37.51;98771.96;104764;1272;75779;-22
2022/06/13 08:06:04;;;;;;;1.70;1.00;;;;;;;26.82;35.86;98766.20;104759;1271;61147;-22
2022/06/13 08:08:34;;;;;;;1.10;1.00;;;;;;;26.97;37.60;98771.45;104821;1271;61772;-22
2022/06/13 08:11:03;;;;;;;4.20;1.20;;;;;;;27.36;37.08;98771.59;104662;1271;76518;-23
2022/06/13 08:13:30;;;;;;;1.80;1.30;;;;;;;27.35;36.79;98765.00;104444;1271;376645;-23
2022/06/13 08:15:58;;;;;;;2.00;1.30;;;;;;;27.20;37.57;98768.55;104783;1274;75220;-23
2022/06/13 08:18:25;;;;;;;2.20;1.10;;;;;;;27.00;38.65;98767.93;104736;1274;62975;-24
2022/06/13 08:20:53;;;;;;;7.60;1.10;;;;;;;26.74;37.77;98768.82;104689;1274;63099;-23
2022/06/13 08:23:21;;;;;;;3.00;1.00;;;;;;;26.94;38.57;98771.19;104799;1271;76424;-23
2022/06/13 08:25:49;;;;;;;1.70;1.00;;;;;;;26.80;36.67;98766.01;104738;1272;75708;-23
2022/06/13 08:28:17;;;;;;;2.80;1.00;;;;;;;27.15;37.55;98764.60;104557;1271;75390;-23
2022/06/13 08:30:56;;;;;;;2.40;1.30;;;;;;;26.84;37.26;98770.91;104791;1271;61767;-23
2022/06/13 08:33:24;;;;;;;15.90;1.60;;;;;;;26.78;37.11;98763.57;104651;1270;61977;-23
2022/06/13 08:35:51;;;;;;;3.60;1.00;;;;;;;27.16;37.86;98763.77;104779;1271;76799;-23
2022/06/13 08:38:21;;;;;;;2.00;1.10;;;;;;;27.34;36.08;98764.98;104834;1271;77529;-23
2022/06/13 08:40:57;;;;;;;1.70;1.00;;;;;;;27.16;36.26;98764.52;104618;1274;74493;-23
2022/06/13 08:43:53;;;;;;;2.60;1.10;;;;;;;26.68;36.22;98768.56;104616;1271;62003;-23
2022/06/13 08:46:27;;;;;;;6.40;1.60;;;;;;;26.55;37.46;98769.91;104837;1270;63079;-23
2022/06/13 08:49:17;;;;;;;2.00;1.10;;;;;;;26.44;38.24;98768.05;104650;1272;76435;-23
2022/06/13 08:51:49;;;;;;;5.10;1.10;;;;;;;26.36;39.02;98766.77;104764;1271;77005;-23
2022/06/13 08:54:20;;;;;;;3.20;1.10;;;;;;;26.55;39.92;98765.69;104707;1272;75420;-22
2022/06/13 08:56:47;;;;;;;2.00;1.00;;;;;;;27.19;37.43;98763.39;104664;1270;61781;-23
2022/06/13 08:59:34;;;;;;;2.50;1.20;;;;;;;27.89;36.37;98760.98;104623;1274;62381;-23
2022/06/13 09:02:20;;;;;;;2.80;1.10;;;;;;;28.33;35.08;98760.96;104653;1270;76838;-23
2022/06/13 09:05:06;;;;;;;25.60;2.00;;;;;;;28.27;34.92;98758.06;104650;1270;77092;-22
2022/06/13 09:07:41;;;;;;;5.80;1.50;;;;;;;28.21;34.97;98759.22;104819;1270;75274;-23
2022/06/13 09:10:22;;;;;;;7.30;1.60;;;;;;;27.09;34.55;98756.17;104689;1271;62131;-23
2022/06/13 09:12:52;;;;;;;2.60;1.20;;;;;;;27.09;37.84;98756.80;104696;1273;62052;-23
2022/06/13 09:15:21;;;;;;;3.30;1.00;;;;;;;27.35;37.14;98756.02;104777;1272;76642;-23
2022/06/13 09:17:52;;;;;;;3.60;1.60;;;;;;;27.29;36.31;98756.23;104798;1270;76978;-23
2022/06/13 09:20:26;;;;;;;4.10;2.40;;;;;;;26.52;36.90;98751.42;104655;1271;75507;-23
2022/06/13 09:23:15;;;;;;;4.30;2.90;;;;;;;26.81;36.90;98750.08;104650;1274;61861;-23
2022/06/13 09:26:02;;;;;;;3.60;2.10;;;;;;;26.80;37.15;98753.03;104673;1273;61998;-23
2022/06/13 09:28:37;;;;;;;4.50;1.60;;;;;;;27.21;36.08;98748.95;104667;1271;76770;-23
2022/06/13 09:31:13;;;;;;;2.50;1.50;;;;;;;28.08;35.24;98747.58;104684;1271;76888;-23
2022/06/13 09:33:45;;;;;;;2.90;1.00;;;;;;;28.85;32.10;98742.80;104666;1271;75452;-23
2022/06/13 09:36:32;;;;;;;2.20;1.20;;;;;;;28.98;32.88;98738.77;104673;1271;62059;-23
2022/06/13 09:39:04;;;;;;;2.10;1.10;;;;;;;29.19;33.75;98738.45;104779;1271;61689;-23
2022/06/13 09:41:54;;;;;;;7.00;1.50;;;;;;;28.74;34.40;98742.70;104626;1271;76587;-23
2022/06/13 09:44:24;;;;;;;2.40;1.30;;;;;;;28.59;35.42;98747.41;104527;1271;75952;-23
2022/06/13 09:46:55;;;;;;;1.90;1.10;;;;;;;28.11;34.99;98744.04;104720;1271;75382;-23
2022/06/13 09:49:47;;;;;;;3.30;1.10;;;;;;;27.71;35.73;98741.23;104732;1270;61755;-23
2022/06/13 09:52:17;;;;;;;3.10;1.50;;;;;;;27.67;35.07;98740.65;104779;1270;62062;-23
2022/06/13 09:55:10;;;;;;;3.00;1.20;;;;;;;27.97;34.88;98740.54;104593;1271;76531;-23
2022/06/13 09:58:06;;;;;;;1.90;1.10;;;;;;;28.26;32.73;98739.86;104730;1274;77076;-25
2022/06/13 10:00:42;;;;;;;2.90;1.40;;;;;;;28.90;33.20;98730.21;104715;1271;74440;-24
2022/06/13 10:03:10;;;;;;;3.10;1.20;;;;;;;29.63;32.03;98723.40;104970;1270;63287;-23
2022/06/13 10:05:52;;;;;;;3.30;1.50;;;;;;;30.05;32.56;98722.04;104840;1271;62018;-23
2022/06/13 10:08:30;;;;;;;2.20;1.00;;;;;;;29.99;31.97;98720.30;104596;1270;75736;-23
2022/06/13 10:11:29;;;;;;;4.20;1.30;;;;;;;29.85;31.58;98716.45;104674;1272;75951;-23
2022/06/13 10:14:06;;;;;;;3.00;1.20;;;;;;;29.69;30.45;98715.06;104654;1271;74169;-23
2022/06/13 10:16:44;;;;;;;12.00;1.60;;;;;;;29.67;32.45;98710.39;104733;1271;62061;-23
2022/06/13 10:19:17;;;;;;;1.50;1.40;;;;;;;30.34;32.65;98710.35;104597;1271;62752;-23
2022/06/13 10:21:47;;;;;;;3.60;1.30;;;;;;;30.72;31.41;98702.35;104888;1271;75558;-23
2022/06/13 10:24:28;;;;;;;2.50;1.10;;;;;;;31.05;31.66;98700.00;104648;1271;76030;-23
2022/06/13 10:27:01;;;;;;;1.30;0.90;;;;;;;31.19;29.15;98697.00;104673;1271;74082;-23
2022/06/13 10:29:38;;;;;;;9.50;1.40;;;;;;;31.43;30.68;98691.11;104649;1271;63075;-23
2022/06/13 10:32:08;;;;;;;71.90;6.60;;;;;;;30.39;33.90;98667.09;104716;1271;61768;-23
2022/06/13 10:34:55;;;;;;;2.50;1.20;;;;;;;29.48;32.80;98695.20;104726;1271;76321;-23
2022/06/13 10:37:34;;;;;;;3.40;1.20;;;;;;;29.23;33.44;98693.09;104737;1270;75843;-23
2022/06/13 10:40:03;;;;;;;3.40;1.20;;;;;;;28.35;34.52;98692.40;104802;1271;74311;-23
2022/06/13 10:42:32;;;;;;;3.60;1.10;;;;;;;27.74;36.27;98695.93;104685;1271;63149;-23
2022/06/13 10:44:59;;;;;;;5.40;1.20;;;;;;;27.24;38.28;98695.28;104623;1270;62011;-23
2022/06/13 10:47:53;;;;;;;3.50;1.30;;;;;;;26.84;38.42;98688.31;104848;1271;75711;-23
2022/06/13 10:50:31;;;;;;;2.20;1.30;;;;;;;26.34;39.75;98691.84;104812;1272;76891;-23
2022/06/13 10:53:07;;;;;;;5.50;1.30;;;;;;;26.05;40.54;98688.27;104730;1270;74387;-23
2022/06/13 10:55:40;;;;;;;2.40;1.10;;;;;;;25.86;42.04;98686.85;104718;1271;63089;-23
2022/06/13 10:58:24;;;;;;;9.10;1.50;;;;;;;25.83;41.85;98682.73;104695;1271;63052;-23
2022/06/13 11:01:10;;;;;;;2.00;1.00;;;;;;;26.26;41.44;98684.84;104769;1270;76575;-23
2022/06/13 11:03:56;;;;;;;1.20;1.00;;;;;;;27.12;40.23;98674.58;104848;1271;76906;-25
2022/06/13 11:06:33;;;;;;;2.10;1.20;;;;;;;27.28;36.39;98672.73;104765;1270;75247;-23
2022/06/13 11:09:01;;;;;;;3.60;1.20;;;;;;;27.27;36.34;98666.79;104731;1270;63131;-23
2022/06/13 11:11:37;;;;;;;2.10;1.20;;;;;;;27.46;36.08;98664.14;104719;1270;62983;-23
2022/06/13 11:14:04;;;;;;;1.10;0.90;;;;;;;27.73;35.98;98659.83;105121;1270;76559;-23
2022/06/13 11:22:43;;;;;;;11.30;6.80;;;;;;;27.85;36.76;98646.92;104236;1271;62339;-23
2022/06/13 11:25:12;;;;;;;5.80;5.10;;;;;;;27.10;37.57;98644.14;104956;1270;62803;-23
2022/06/13 11:27:40;;;;;;;7.00;4.30;;;;;;;26.72;38.45;98642.23;104986;1271;75499;-23
2022/06/13 11:30:26;;;;;;;2.70;2.20;;;;;;;27.21;39.18;98644.90;104843;1270;77041;-24
2022/06/13 11:33:03;;;;;;;5.70;3.00;;;;;;;27.24;37.30;98649.31;104812;1271;74325;-24
2022/06/13 11:35:36;;;;;;;5.20;4.00;;;;;;;26.67;37.41;98646.52;104676;1270;62048;-24
2022/06/13 11:38:32;;;;;;;17.70;3.90;;;;;;;27.03;38.46;98641.15;104692;1271;61969;-24
2022/06/13 11:41:00;;;;;;;10.10;7.20;;;;;;;26.94;37.60;98639.02;104802;1271;76437;-24
2022/06/13 11:43:52;;;;;;;6.70;4.70;;;;;;;26.97;36.29;98636.20;104749;1271;76987;-23
2022/06/13 11:46:23;;;;;;;3.90;1.60;;;;;;;27.40;35.54;98636.55;104772;1271;73891;-24
2022/06/13 11:48:51;;;;;;;3.70;2.60;;;;;;;27.98;35.17;98627.48;104641;1271;62091;-25
2022/06/13 11:51:29;;;;;;;5.20;1.50;;;;;;;28.69;34.49;98623.94;104742;1270;61626;-24
2022/06/13 11:53:58;;;;;;;4.60;1.40;;;;;;;29.28;33.24;98612.48;104775;1270;76683;-24
2022/06/13 11:56:28;;;;;;;2.90;1.10;;;;;;;29.15;32.72;98607.84;104695;1271;75992;-24
2022/06/13 11:58:58;;;;;;;2.80;1.40;;;;;;;29.56;32.36;98604.71;104525;1273;75775;-24
2022/06/13 12:01:44;;;;;;;2.10;1.00;;;;;;;29.91;31.44;98602.17;104508;1270;61746;-25
2022/06/13 12:04:11;;;;;;;1.90;0.90;;;;;;;30.12;30.97;98600.04;104452;1271;63055;-24
2022/06/13 12:06:49;;;;;;;6.40;1.10;;;;;;;30.10;30.98;98593.34;104800;1271;76748;-24
2022/06/13 12:09:21;;;;;;;4.00;1.20;;;;;;;29.52;31.51;98592.08;104743;1271;75945;-24
2022/06/13 12:12:03;;;;;;;2.60;1.20;;;;;;;29.14;32.60;98588.77;104703;1271;74552;-24
2022/06/13 12:14:41;;;;;;;3.10;1.20;;;;;;;28.56;32.01;98585.79;104736;1271;63095;-24
2022/06/13 12:17:24;;;;;;;4.40;1.40;;;;;;;28.75;34.71;98585.31;104631;1271;61059;-24